createdAt,value
2023-03-11T00:00:20.048Z,0.40
2023-03-11T00:02:47.903Z,0.50
2023-03-11T00:05:21.811Z,0.82
2023-03-11T00:07:48.677Z,0.60
2023-03-11T00:10:21.212Z,0.88
2023-03-11T00:12:47.828Z,0.35
2023-03-11T00:15:15.061Z,0.40
2023-03-11T00:17:41.661Z,0.90
2023-03-11T00:20:14.903Z,2.50
2023-03-11T00:22:41.513Z,1.02
2023-03-11T00:25:10.746Z,0.70
2023-03-11T00:27:37.478Z,0.85
2023-03-11T00:30:04.849Z,0.70
2023-03-11T00:32:32.663Z,0.60
2023-03-11T00:35:01.483Z,0.52
2023-03-11T00:37:28.062Z,0.50
2023-03-11T00:39:54.976Z,0.50
2023-03-11T00:42:21.809Z,0.45
2023-03-11T00:44:48.737Z,0.50
2023-03-11T00:47:15.471Z,0.52
2023-03-11T00:49:42.099Z,0.40
2023-03-11T00:52:08.745Z,0.50
2023-03-11T00:54:35.586Z,0.30
2023-03-11T00:57:02.283Z,0.52
2023-03-11T00:59:29.263Z,0.40
2023-03-11T01:01:56.047Z,0.77
2023-03-11T01:04:22.812Z,0.50
2023-03-11T01:06:49.371Z,0.40
2023-03-11T01:09:15.896Z,0.50
2023-03-11T01:11:43.303Z,0.60
2023-03-11T01:14:10.092Z,0.63
2023-03-11T01:16:39.646Z,0.55
2023-03-11T01:19:07.202Z,0.50
2023-03-11T01:21:33.791Z,0.60
2023-03-11T01:24:00.286Z,0.70
2023-03-11T01:26:27.235Z,0.90
2023-03-11T01:28:55.828Z,0.55
2023-03-11T01:31:22.848Z,0.60
2023-03-11T01:33:49.434Z,0.55
2023-03-11T01:36:16.344Z,0.70
2023-03-11T01:38:43.152Z,0.75
2023-03-11T01:41:11.415Z,0.50
2023-03-11T01:43:44.269Z,0.50
2023-03-11T01:46:20.302Z,0.80
2023-03-11T01:49:05.993Z,0.63
2023-03-11T01:51:38.966Z,0.50
2023-03-11T01:56:37.002Z,0.40
2023-03-11T01:59:06.907Z,0.50
2023-03-11T02:01:35.512Z,0.55
2023-03-11T02:04:04.041Z,0.98
2023-03-11T02:06:32.638Z,0.50
2023-03-11T02:09:01.462Z,0.50
2023-03-11T02:11:30.644Z,0.50
2023-03-11T02:14:03.378Z,0.70
2023-03-11T02:16:30.158Z,0.70
2023-03-11T02:19:02.343Z,0.40
2023-03-11T02:21:31.874Z,0.60
2023-03-11T02:24:26.065Z,0.60
2023-03-11T02:29:28.462Z,0.50
2023-03-11T02:31:57.086Z,0.63
2023-03-11T02:34:28.074Z,0.60
2023-03-11T02:36:54.660Z,0.70
2023-03-11T02:39:49.766Z,0.55
2023-03-11T02:42:26.252Z,0.50
2023-03-11T02:45:08.707Z,0.40
2023-03-11T02:47:38.975Z,0.60
2023-03-11T02:50:11.022Z,0.60
2023-03-11T02:52:38.308Z,0.50
2023-03-11T02:55:06.606Z,0.50
2023-03-11T02:57:34.418Z,0.68
2023-03-11T03:00:08.252Z,0.40
2023-03-11T03:02:34.871Z,0.45
2023-03-11T03:05:02.189Z,0.47
2023-03-11T03:07:29.724Z,0.50
2023-03-11T03:09:56.416Z,0.40
2023-03-11T03:12:23.123Z,0.50
2023-03-11T03:14:49.871Z,0.55
2023-03-11T03:17:16.929Z,0.60
2023-03-11T03:19:43.688Z,0.40
2023-03-11T03:22:11.936Z,0.30
2023-03-11T03:24:40.316Z,0.40
2023-03-11T03:27:07.425Z,0.45
2023-03-11T03:29:34.265Z,0.43
2023-03-11T03:32:01.135Z,0.40
2023-03-11T03:34:27.813Z,0.50
2023-03-11T03:36:54.529Z,0.40
2023-03-11T03:39:21.209Z,0.35
2023-03-11T03:41:50.422Z,0.40
2023-03-11T03:44:17.345Z,0.70
2023-03-11T03:46:44.907Z,0.55
2023-03-11T03:49:12.327Z,0.40
2023-03-11T03:51:39.364Z,0.52
2023-03-11T03:54:26.289Z,0.55
2023-03-11T03:56:53.293Z,0.43
2023-03-11T03:59:20.739Z,0.40
2023-03-11T04:01:52.331Z,0.60
2023-03-11T04:04:20.112Z,0.30
2023-03-11T04:06:47.329Z,0.50
2023-03-11T04:09:14.454Z,0.60
2023-03-11T04:11:42.921Z,0.40
2023-03-11T04:14:11.621Z,0.65
2023-03-11T04:16:44.242Z,0.60
2023-03-11T04:19:12.252Z,0.40
2023-03-11T04:21:39.116Z,0.40
2023-03-11T04:24:06.373Z,0.43
2023-03-11T04:26:35.956Z,0.70
2023-03-11T04:29:03.549Z,0.57
2023-03-11T04:31:37.246Z,0.50
2023-03-11T04:34:06.400Z,0.60
2023-03-11T04:36:33.450Z,0.60
2023-03-11T04:39:00.703Z,0.60
2023-03-11T04:41:30.780Z,0.55
2023-03-11T04:43:59.593Z,0.50
2023-03-11T04:46:26.807Z,0.60
2023-03-11T04:48:53.709Z,0.45
2023-03-11T04:51:20.280Z,0.60
2023-03-11T04:53:46.914Z,0.57
2023-03-11T04:56:13.772Z,0.60
2023-03-11T04:58:40.566Z,0.60
2023-03-11T05:01:07.336Z,0.55
2023-03-11T05:03:37.546Z,0.85
2023-03-11T05:06:07.300Z,0.57
2023-03-11T05:08:34.027Z,0.70
2023-03-11T05:11:00.763Z,0.50
2023-03-11T05:13:27.413Z,0.55
2023-03-11T05:15:54.521Z,0.70
2023-03-11T05:18:21.774Z,0.50
2023-03-11T05:20:49.489Z,0.55
2023-03-11T05:23:17.824Z,0.50
2023-03-11T05:25:44.620Z,0.82
2023-03-11T05:28:11.827Z,0.50
2023-03-11T05:30:44.118Z,0.52
2023-03-11T05:33:11.290Z,0.70
2023-03-11T05:35:38.025Z,0.40
2023-03-11T05:38:05.007Z,0.70
2023-03-11T05:40:32.502Z,0.57
2023-03-11T05:42:59.256Z,0.60
2023-03-11T05:45:28.255Z,0.60
2023-03-11T05:47:56.699Z,0.65
2023-03-11T05:50:24.279Z,0.60
2023-03-11T05:52:52.465Z,0.68
2023-03-11T05:55:20.801Z,0.82
2023-03-11T05:57:51.258Z,0.70
2023-03-11T06:00:20.507Z,0.65
2023-03-11T06:02:50.684Z,0.60
2023-03-11T06:05:19.025Z,0.88
2023-03-11T06:07:48.006Z,0.60
2023-03-11T06:10:14.750Z,0.63
2023-03-11T06:12:42.297Z,0.40
2023-03-11T06:15:14.987Z,0.60
2023-03-11T06:17:42.643Z,0.60
2023-03-11T06:20:10.146Z,0.55
2023-03-11T06:22:39.957Z,0.70
2023-03-11T06:25:08.035Z,0.75
2023-03-11T06:27:35.269Z,0.75
2023-03-11T06:30:02.343Z,0.75
2023-03-11T06:32:34.610Z,0.90
2023-03-11T06:35:01.253Z,0.93
2023-03-11T06:37:28.094Z,0.80
2023-03-11T06:39:56.182Z,0.60
2023-03-11T06:42:24.655Z,0.85
2023-03-11T06:44:53.495Z,1.10
2023-03-11T06:47:20.328Z,0.95
2023-03-11T06:49:48.110Z,0.60
2023-03-11T06:52:16.597Z,0.70
2023-03-11T06:54:44.263Z,0.82
2023-03-11T06:57:11.532Z,0.70
2023-03-11T06:59:39.589Z,0.95
2023-03-11T07:02:12.509Z,0.55
2023-03-11T07:04:41.398Z,1.17
2023-03-11T07:07:08.058Z,0.52
2023-03-11T07:09:35.035Z,0.50
2023-03-11T07:12:04.437Z,0.52
2023-03-11T07:14:35.885Z,0.75
2023-03-11T07:17:02.876Z,0.50
2023-03-11T07:19:35.739Z,0.63
2023-03-11T07:22:02.320Z,0.40
2023-03-11T07:24:29.009Z,0.47
2023-03-11T07:26:55.669Z,0.57
2023-03-11T07:29:22.254Z,0.50
2023-03-11T07:31:49.648Z,0.40
2023-03-11T07:34:16.635Z,0.50
2023-03-11T07:36:43.575Z,0.60
2023-03-11T07:39:17.696Z,0.60
2023-03-11T07:41:44.571Z,0.30
2023-03-11T07:44:15.747Z,0.47
2023-03-11T07:46:43.715Z,0.40
2023-03-11T07:49:10.354Z,0.73
2023-03-11T07:51:38.708Z,0.40
2023-03-11T07:54:05.616Z,0.40
2023-03-11T07:56:34.533Z,0.60
2023-03-11T07:59:02.373Z,0.50
2023-03-11T08:01:36.026Z,0.40
2023-03-11T08:04:08.526Z,0.40
2023-03-11T08:06:36.915Z,0.55
2023-03-11T08:09:07.279Z,0.50
2023-03-11T08:11:35.141Z,0.60
2023-03-11T08:14:02.414Z,0.50
2023-03-11T08:16:29.427Z,0.50
2023-03-11T08:18:55.994Z,0.40
2023-03-11T08:21:25.898Z,0.55
2023-03-11T08:23:56.518Z,0.40
2023-03-11T08:26:23.716Z,0.50
2023-03-11T08:28:50.628Z,0.40
2023-03-11T08:31:20.269Z,0.80
2023-03-11T08:33:49.946Z,0.40
2023-03-11T08:36:17.541Z,0.40
2023-03-11T08:38:44.346Z,0.45
2023-03-11T08:41:11.038Z,0.40
2023-03-11T08:43:38.122Z,0.32
2023-03-11T08:46:08.894Z,0.38
2023-03-11T08:48:37.171Z,0.50
2023-03-11T08:51:10.332Z,0.50
2023-03-11T08:53:37.834Z,0.65
2023-03-11T08:56:05.266Z,0.55
2023-03-11T08:58:32.100Z,0.40
2023-03-11T09:00:59.394Z,0.40
2023-03-11T09:03:25.929Z,0.50
2023-03-11T09:06:00.234Z,0.40
2023-03-11T09:08:27.646Z,0.40
2023-03-11T09:10:54.440Z,0.30
2023-03-11T09:13:21.476Z,0.38
2023-03-11T09:15:52.294Z,0.40
2023-03-11T09:18:19.682Z,0.30
2023-03-11T09:20:46.931Z,0.40
2023-03-11T09:23:16.147Z,0.50
2023-03-11T09:25:43.067Z,0.35
2023-03-11T09:28:09.640Z,0.50
2023-03-11T09:30:36.496Z,0.40
2023-03-11T09:33:03.185Z,0.30
2023-03-11T09:35:29.905Z,0.47
2023-03-11T09:37:56.475Z,0.20
2023-03-11T09:40:28.181Z,0.40
2023-03-11T09:45:28.231Z,0.20
2023-03-11T09:48:07.227Z,0.40
2023-03-11T09:50:43.629Z,0.30
2023-03-11T09:53:19.999Z,0.40
2023-03-11T09:55:48.828Z,0.35
2023-03-11T09:58:17.692Z,0.30
2023-03-11T10:00:45.077Z,0.30
2023-03-11T10:03:22.943Z,0.32
2023-03-11T10:05:52.275Z,0.52
2023-03-11T10:08:29.102Z,0.60
2023-03-11T10:11:26.096Z,0.30
2023-03-11T10:14:22.398Z,0.30
2023-03-11T10:17:18.984Z,0.60
2023-03-11T10:20:06.006Z,0.25
2023-03-11T10:22:51.353Z,0.30
2023-03-11T10:25:29.149Z,0.40
2023-03-11T10:27:59.647Z,0.30
2023-03-11T10:30:33.278Z,0.20
2023-03-11T10:33:06.469Z,0.17
2023-03-11T10:35:40.980Z,0.30
2023-03-11T10:38:15.917Z,0.40
2023-03-11T10:40:45.067Z,0.30
2023-03-11T10:43:16.723Z,0.40
2023-03-11T10:45:46.119Z,0.20
2023-03-11T10:48:15.602Z,0.20
2023-03-11T10:50:57.030Z,0.30
2023-03-11T10:53:24.235Z,0.40
2023-03-11T10:55:53.676Z,0.35
2023-03-11T10:58:24.165Z,0.30
2023-03-11T11:01:03.983Z,0.20
2023-03-11T11:03:31.536Z,0.40
2023-03-11T11:06:07.406Z,0.60
2023-03-11T11:08:34.502Z,0.40
2023-03-11T11:11:03.665Z,0.15
2023-03-11T11:13:34.710Z,0.30
2023-03-11T11:16:20.946Z,0.20
2023-03-11T11:19:02.570Z,0.30
2023-03-11T11:24:23.703Z,0.20
2023-03-11T11:27:14.236Z,0.30
2023-03-11T11:29:45.441Z,0.40
2023-03-11T11:32:19.099Z,0.20
2023-03-11T11:35:09.404Z,0.20
2023-03-11T11:37:39.873Z,0.30
2023-03-11T11:40:16.492Z,0.30
2023-03-11T11:42:52.143Z,0.38
2023-03-11T11:45:32.085Z,0.25
2023-03-11T11:48:04.596Z,0.30
2023-03-11T11:50:38.353Z,0.45
2023-03-11T11:53:20.704Z,0.20
2023-03-11T11:55:49.726Z,0.57
2023-03-11T11:58:16.536Z,0.20
2023-03-11T12:01:15.340Z,0.10
2023-03-11T12:04:07.848Z,0.30
2023-03-11T12:06:40.893Z,0.40
2023-03-11T12:09:45.216Z,0.30
2023-03-11T12:12:17.944Z,0.20
2023-03-11T12:15:10.233Z,0.20
2023-03-11T12:17:42.587Z,0.30
2023-03-11T12:20:18.603Z,0.40
2023-03-11T12:23:18.710Z,0.20
2023-03-11T12:26:10.225Z,0.20
2023-03-11T12:31:17.713Z,0.30
2023-03-11T12:33:51.442Z,0.30
2023-03-11T12:36:21.644Z,0.30
2023-03-11T12:38:49.698Z,0.20
2023-03-11T12:41:40.121Z,0.30
2023-03-11T12:44:22.215Z,0.30
2023-03-11T12:46:58.147Z,0.32
2023-03-11T12:49:25.716Z,0.20
2023-03-11T12:52:02.788Z,0.20
2023-03-11T12:54:31.864Z,0.28
2023-03-11T12:57:01.340Z,0.30
2023-03-11T13:00:01.979Z,0.30
2023-03-11T13:02:54.116Z,0.25
2023-03-11T13:05:45.584Z,0.50
2023-03-11T13:10:46.379Z,0.30
2023-03-11T13:13:25.238Z,0.32
2023-03-11T13:15:53.111Z,0.30
2023-03-11T13:18:23.570Z,0.30
2023-03-11T13:20:56.039Z,0.50
2023-03-11T13:23:29.712Z,0.20
2023-03-11T13:25:56.445Z,0.40
2023-03-11T13:28:48.046Z,0.30
2023-03-11T13:31:33.571Z,0.32
2023-03-11T13:34:22.194Z,0.35
2023-03-11T13:37:09.502Z,0.40
2023-03-11T13:39:51.571Z,0.43
2023-03-11T13:42:31.252Z,0.40
2023-03-11T13:44:59.760Z,0.20
2023-03-11T13:47:28.956Z,0.20
2023-03-11T13:50:05.517Z,0.50
2023-03-11T13:52:39.601Z,0.30
2023-03-11T13:55:15.857Z,0.30
2023-03-11T13:57:50.363Z,0.52
2023-03-11T14:00:24.126Z,0.40
2023-03-11T14:02:55.402Z,0.47
2023-03-11T14:07:54.335Z,0.40
2023-03-11T14:10:25.306Z,0.40
2023-03-11T14:13:04.343Z,0.40
2023-03-11T14:15:43.797Z,0.32
2023-03-11T14:18:31.151Z,0.40
2023-03-11T14:20:58.452Z,0.40
2023-03-11T14:23:32.973Z,0.30
2023-03-11T14:26:08.251Z,0.35
2023-03-11T14:28:38.842Z,0.55
2023-03-11T14:31:05.902Z,0.40
2023-03-11T14:33:32.865Z,0.55
2023-03-11T14:36:03.712Z,0.30
2023-03-11T14:38:32.283Z,0.40
2023-03-11T14:41:02.198Z,0.30
2023-03-11T14:43:33.711Z,0.47
2023-03-11T14:46:03.030Z,0.55
2023-03-11T14:48:37.274Z,0.40
2023-03-11T14:51:06.162Z,0.38
2023-03-11T14:53:41.880Z,0.28
2023-03-11T14:56:21.987Z,0.40
2023-03-11T14:59:34.972Z,0.32
2023-03-11T15:02:25.466Z,0.35
2023-03-11T15:04:54.539Z,0.40
2023-03-11T15:07:22.590Z,0.47
2023-03-11T15:09:49.554Z,0.40
2023-03-11T15:12:37.726Z,0.52
2023-03-11T15:15:21.999Z,0.70
2023-03-11T15:17:57.905Z,0.32
2023-03-11T15:20:37.493Z,0.40
2023-03-11T15:23:06.536Z,0.70
2023-03-11T15:25:38.858Z,0.50
2023-03-11T15:28:20.645Z,0.50
2023-03-11T15:30:47.485Z,0.60
2023-03-11T15:33:23.437Z,1.52
2023-03-11T15:35:50.368Z,0.30
2023-03-11T15:38:28.445Z,0.30
2023-03-11T15:41:03.954Z,0.77
2023-03-11T15:43:41.523Z,0.70
2023-03-11T15:46:10.539Z,0.50
2023-03-11T15:48:37.156Z,0.70
2023-03-11T15:51:03.992Z,0.65
2023-03-11T15:53:32.494Z,0.40
2023-03-11T15:56:07.743Z,0.68
2023-03-11T15:58:37.876Z,0.60
2023-03-11T16:01:04.798Z,0.40
2023-03-11T16:03:31.707Z,0.40
2023-03-11T16:05:58.589Z,0.32
2023-03-11T16:08:25.269Z,1.27
2023-03-11T16:10:52.179Z,0.65
2023-03-11T16:13:18.845Z,0.50
2023-03-11T16:15:47.288Z,0.90
2023-03-11T16:18:14.096Z,0.60
2023-03-11T16:20:53.140Z,0.63
2023-03-11T16:23:26.357Z,0.85
2023-03-11T16:25:59.654Z,0.55
2023-03-11T16:28:26.575Z,0.70
2023-03-11T16:30:53.232Z,0.50
2023-03-11T16:33:20.128Z,0.60
2023-03-11T16:35:46.788Z,0.60
2023-03-11T16:38:14.191Z,0.52
2023-03-11T16:40:41.098Z,0.68
2023-03-11T16:43:10.455Z,0.70
2023-03-11T16:45:39.945Z,0.57
2023-03-11T16:48:07.362Z,0.57
2023-03-11T16:50:34.472Z,0.55
2023-03-11T16:53:03.039Z,0.40
2023-03-11T16:55:29.917Z,0.45
2023-03-11T16:57:57.595Z,0.50
2023-03-11T17:00:25.110Z,0.57
2023-03-11T17:02:51.978Z,0.60
2023-03-11T17:05:18.958Z,0.47
2023-03-11T17:07:45.909Z,0.63
2023-03-11T17:10:15.632Z,0.60
2023-03-11T17:12:42.392Z,0.60
2023-03-11T17:15:09.272Z,0.82
2023-03-11T17:17:36.351Z,0.60
2023-03-11T17:20:06.415Z,0.68
2023-03-11T17:22:32.938Z,0.80
2023-03-11T17:24:59.694Z,0.75
2023-03-11T17:27:31.994Z,0.52
2023-03-11T17:30:04.208Z,1.45
2023-03-11T17:32:31.084Z,0.93
2023-03-11T17:34:58.250Z,0.60
2023-03-11T17:37:25.206Z,0.80
2023-03-11T17:39:52.051Z,0.75
2023-03-11T17:42:18.831Z,1.58
2023-03-11T17:44:51.866Z,1.20
2023-03-11T17:47:19.904Z,1.27
2023-03-11T17:49:47.698Z,1.27
2023-03-11T17:52:14.298Z,1.00
2023-03-11T17:54:41.064Z,1.00
2023-03-11T17:57:07.987Z,1.13
2023-03-11T17:59:34.720Z,1.42
2023-03-11T18:02:01.616Z,1.42
2023-03-11T18:04:28.502Z,2.03
2023-03-11T18:06:55.858Z,1.27
2023-03-11T18:09:22.749Z,1.40
2023-03-11T18:11:54.350Z,1.40
2023-03-11T18:14:21.031Z,1.13
2023-03-11T18:16:47.868Z,0.90
2023-03-11T18:19:14.507Z,1.63
2023-03-11T18:21:42.646Z,1.42
2023-03-11T18:24:09.350Z,1.20
2023-03-11T18:26:36.097Z,1.40
2023-03-11T18:29:02.696Z,1.10
2023-03-11T18:31:30.890Z,1.10
2023-03-11T18:34:00.165Z,1.30
2023-03-11T18:36:28.416Z,1.20
2023-03-11T18:38:59.448Z,1.92
2023-03-11T18:41:27.617Z,1.38
2023-03-11T18:44:17.894Z,1.50
2023-03-11T18:46:50.338Z,1.00
2023-03-11T18:49:16.905Z,1.15
2023-03-11T18:51:43.523Z,1.10
2023-03-11T18:54:10.600Z,1.15
2023-03-11T18:56:37.349Z,1.00
2023-03-11T18:59:03.974Z,1.35
2023-03-11T19:01:30.835Z,1.48
2023-03-11T19:03:59.298Z,1.00
2023-03-11T19:06:28.031Z,1.30
2023-03-11T19:08:55.298Z,1.27
2023-03-11T19:11:23.557Z,1.40
2023-03-11T19:13:50.689Z,1.35
2023-03-11T19:16:20.863Z,1.30
2023-03-11T19:18:48.421Z,1.40
2023-03-11T19:21:16.210Z,1.58
2023-03-11T19:23:44.075Z,1.30
2023-03-11T19:26:10.819Z,1.50
2023-03-11T19:28:37.567Z,1.27
2023-03-11T19:31:05.349Z,1.60
2023-03-11T19:33:32.542Z,1.10
2023-03-11T19:36:01.908Z,1.48
2023-03-11T19:38:28.993Z,1.20
2023-03-11T19:41:14.425Z,1.30
2023-03-11T19:43:42.189Z,1.20
2023-03-11T19:46:11.092Z,1.38
2023-03-11T19:48:37.897Z,1.17
2023-03-11T19:51:05.997Z,1.40
2023-03-11T19:53:34.184Z,1.40
2023-03-11T19:56:03.395Z,1.45
2023-03-11T19:58:31.272Z,1.60
2023-03-11T20:00:59.225Z,2.05
2023-03-11T20:03:26.556Z,1.60
2023-03-11T20:05:56.487Z,1.75
2023-03-11T20:08:24.681Z,2.03
2023-03-11T20:10:53.033Z,2.03
2023-03-11T20:13:21.316Z,1.50
2023-03-11T20:15:48.970Z,1.48
2023-03-11T20:18:15.997Z,1.40
2023-03-11T20:20:46.629Z,1.98
2023-03-11T20:23:13.789Z,1.55
2023-03-11T20:25:41.756Z,1.40
2023-03-11T20:28:09.488Z,1.42
2023-03-11T20:30:38.491Z,1.50
2023-03-11T20:33:05.996Z,1.67
2023-03-11T20:35:32.959Z,2.10
2023-03-11T20:37:59.848Z,1.48
2023-03-11T20:40:29.698Z,1.98
2023-03-11T20:42:56.551Z,1.90
2023-03-11T20:45:23.129Z,1.63
2023-03-11T20:47:53.747Z,2.15
2023-03-11T20:50:21.767Z,1.42
2023-03-11T20:52:48.682Z,1.38
2023-03-11T20:55:15.305Z,1.50
2023-03-11T20:57:42.204Z,1.80
2023-03-11T21:00:13.252Z,1.75
2023-03-11T21:02:41.693Z,1.38
2023-03-11T21:05:09.855Z,0.98
2023-03-11T21:07:36.750Z,1.10
2023-03-11T21:10:07.189Z,1.02
2023-03-11T21:12:33.849Z,1.52
2023-03-11T21:15:00.604Z,1.17
2023-03-11T21:17:27.211Z,1.30
2023-03-11T21:19:53.821Z,1.17
2023-03-11T21:22:20.522Z,1.77
2023-03-11T21:24:54.350Z,1.58
2023-03-11T21:27:26.403Z,1.80
2023-03-11T21:29:57.918Z,1.80
2023-03-11T21:32:27.550Z,1.80
2023-03-11T21:34:59.016Z,1.88
2023-03-11T21:37:27.148Z,1.90
2023-03-11T21:39:54.643Z,1.58
2023-03-11T21:42:21.644Z,1.65
2023-03-11T21:44:48.796Z,1.40
2023-03-11T21:47:15.477Z,1.17
2023-03-11T21:49:42.203Z,1.20
2023-03-11T21:52:09.234Z,1.40
2023-03-11T21:54:36.281Z,1.38
2023-03-11T21:57:03.107Z,1.13
2023-03-11T21:59:30.442Z,1.08
2023-03-11T22:02:01.254Z,1.13
2023-03-11T22:04:29.317Z,1.40
2023-03-11T22:06:57.337Z,1.58
2023-03-11T22:09:25.775Z,1.27
2023-03-11T22:11:52.816Z,1.42
2023-03-11T22:14:19.457Z,1.50
2023-03-11T22:16:46.223Z,1.42
2023-03-11T22:19:12.918Z,1.13
2023-03-11T22:21:39.795Z,1.38
2023-03-11T22:24:07.051Z,1.50
2023-03-11T22:26:33.818Z,1.15
2023-03-11T22:29:02.402Z,1.35
2023-03-11T22:31:30.794Z,1.60
2023-03-11T22:33:57.942Z,1.20
2023-03-11T22:36:24.679Z,2.00
2023-03-11T22:38:51.492Z,1.75
2023-03-11T22:41:19.630Z,1.73
2023-03-11T22:43:47.225Z,1.58
2023-03-11T22:46:14.285Z,1.70
2023-03-11T22:48:41.110Z,2.08
2023-03-11T22:51:07.869Z,1.80
2023-03-11T22:53:34.719Z,1.63
2023-03-11T22:56:07.164Z,1.73
2023-03-11T22:58:33.843Z,1.80
2023-03-11T23:01:01.040Z,1.13
2023-03-11T23:03:27.729Z,1.80
2023-03-11T23:05:54.576Z,1.60
2023-03-11T23:08:21.086Z,1.42
2023-03-11T23:10:47.898Z,2.00
2023-03-11T23:13:15.015Z,2.33
2023-03-11T23:15:43.720Z,1.88
2023-03-11T23:18:11.206Z,1.40
2023-03-11T23:20:39.507Z,1.40
2023-03-11T23:23:06.859Z,1.13
2023-03-11T23:25:35.209Z,1.58
2023-03-11T23:28:03.864Z,1.60
2023-03-11T23:30:31.676Z,1.60
2023-03-11T23:32:59.247Z,1.45
2023-03-11T23:35:25.971Z,1.50
2023-03-11T23:37:52.718Z,1.70
2023-03-11T23:40:19.459Z,1.90
2023-03-11T23:42:46.046Z,1.80
2023-03-11T23:45:12.889Z,2.00
2023-03-11T23:47:39.576Z,1.90
2023-03-11T23:50:06.653Z,1.45
2023-03-11T23:52:33.965Z,1.80
2023-03-11T23:55:01.194Z,1.90
2023-03-11T23:57:28.018Z,1.83
2023-03-11T23:59:54.670Z,1.67
